sensor_id;sensor_type;location;lat;lon;timestamp;P1;durP1;ratioP1;P2;durP2;ratioP2
32228;SDS011;18717;48.034;11.186;2024-02-14T00:01:40;10.88;;;9.30;;
32228;SDS011;18717;48.034;11.186;2024-02-14T00:04:09;10.48;;;8.13;;
32228;SDS011;18717;48.034;11.186;2024-02-14T00:06:37;9.77;;;8.65;;
32228;SDS011;18717;48.034;11.186;2024-02-14T00:09:06;10.63;;;9.55;;
32228;SDS011;18717;48.034;11.186;2024-02-14T00:11:37;9.75;;;8.95;;
32228;SDS011;18717;48.034;11.186;2024-02-14T00:14:05;6.93;;;6.37;;
32228;SDS011;18717;48.034;11.186;2024-02-14T00:16:33;10.18;;;8.13;;
32228;SDS011;18717;48.034;11.186;2024-02-14T00:19:03;9.95;;;8.95;;
32228;SDS011;18717;48.034;11.186;2024-02-14T00:21:31;9.40;;;8.63;;
32228;SDS011;18717;48.034;11.186;2024-02-14T00:24:00;10.88;;;8.70;;
32228;SDS011;18717;48.034;11.186;2024-02-14T00:26:28;8.57;;;7.85;;
32228;SDS011;18717;48.034;11.186;2024-02-14T00:28:56;9.15;;;8.27;;
32228;SDS011;18717;48.034;11.186;2024-02-14T00:31:23;10.50;;;9.30;;
32228;SDS011;18717;48.034;11.186;2024-02-14T00:33:51;9.60;;;8.63;;
32228;SDS011;18717;48.034;11.186;2024-02-14T00:36:21;9.35;;;8.43;;
32228;SDS011;18717;48.034;11.186;2024-02-14T00:38:48;9.48;;;8.57;;
32228;SDS011;18717;48.034;11.186;2024-02-14T00:41:17;9.68;;;8.85;;
32228;SDS011;18717;48.034;11.186;2024-02-14T00:43:45;7.65;;;7.00;;
32228;SDS011;18717;48.034;11.186;2024-02-14T00:46:15;8.80;;;7.88;;
32228;SDS011;18717;48.034;11.186;2024-02-14T00:48:43;8.50;;;7.80;;
32228;SDS011;18717;48.034;11.186;2024-02-14T00:51:12;8.98;;;8.07;;
32228;SDS011;18717;48.034;11.186;2024-02-14T00:53:41;8.60;;;7.43;;
32228;SDS011;18717;48.034;11.186;2024-02-14T00:56:09;8.88;;;8.07;;
32228;SDS011;18717;48.034;11.186;2024-02-14T00:58:37;9.07;;;8.38;;
32228;SDS011;18717;48.034;11.186;2024-02-14T01:01:05;11.60;;;8.45;;
32228;SDS011;18717;48.034;11.186;2024-02-14T01:03:33;8.98;;;8.23;;
32228;SDS011;18717;48.034;11.186;2024-02-14T01:06:01;9.65;;;8.65;;
32228;SDS011;18717;48.034;11.186;2024-02-14T01:08:29;11.70;;;8.65;;
32228;SDS011;18717;48.034;11.186;2024-02-14T01:10:58;9.05;;;8.07;;
32228;SDS011;18717;48.034;11.186;2024-02-14T01:13:26;10.18;;;9.07;;
32228;SDS011;18717;48.034;11.186;2024-02-14T01:15:54;10.27;;;9.32;;
32228;SDS011;18717;48.034;11.186;2024-02-14T01:18:22;9.57;;;8.07;;
32228;SDS011;18717;48.034;11.186;2024-02-14T01:20:50;8.88;;;8.13;;
32228;SDS011;18717;48.034;11.186;2024-02-14T01:23:20;10.40;;;9.35;;
32228;SDS011;18717;48.034;11.186;2024-02-14T01:25:47;10.30;;;9.18;;
32228;SDS011;18717;48.034;11.186;2024-02-14T01:28:17;11.23;;;8.73;;
32228;SDS011;18717;48.034;11.186;2024-02-14T01:30:45;9.75;;;9.00;;
32228;SDS011;18717;48.034;11.186;2024-02-14T01:33:13;11.07;;;9.77;;
32228;SDS011;18717;48.034;11.186;2024-02-14T01:35:43;9.98;;;8.95;;
32228;SDS011;18717;48.034;11.186;2024-02-14T01:38:11;9.80;;;9.02;;
32228;SDS011;18717;48.034;11.186;2024-02-14T01:40:42;9.40;;;8.35;;
32228;SDS011;18717;48.034;11.186;2024-02-14T01:43:10;10.25;;;9.27;;
32228;SDS011;18717;48.034;11.186;2024-02-14T01:45:39;9.68;;;8.55;;
32228;SDS011;18717;48.034;11.186;2024-02-14T01:48:07;9.60;;;8.68;;
32228;SDS011;18717;48.034;11.186;2024-02-14T01:50:35;9.05;;;8.20;;
32228;SDS011;18717;48.034;11.186;2024-02-14T01:53:03;10.07;;;9.18;;
32228;SDS011;18717;48.034;11.186;2024-02-14T01:55:31;11.15;;;10.05;;
32228;SDS011;18717;48.034;11.186;2024-02-14T01:58:00;11.02;;;8.60;;
32228;SDS011;18717;48.034;11.186;2024-02-14T02:00:29;9.65;;;8.88;;
32228;SDS011;18717;48.034;11.186;2024-02-14T02:03:00;9.75;;;8.80;;
32228;SDS011;18717;48.034;11.186;2024-02-14T02:05:28;9.60;;;8.80;;
32228;SDS011;18717;48.034;11.186;2024-02-14T02:07:55;9.50;;;8.60;;
32228;SDS011;18717;48.034;11.186;2024-02-14T02:10:23;9.45;;;8.50;;
32228;SDS011;18717;48.034;11.186;2024-02-14T02:12:57;9.52;;;8.52;;
32228;SDS011;18717;48.034;11.186;2024-02-14T02:15:25;9.35;;;8.48;;
32228;SDS011;18717;48.034;11.186;2024-02-14T02:17:54;9.82;;;8.82;;
32228;SDS011;18717;48.034;11.186;2024-02-14T02:20:23;9.18;;;8.30;;
32228;SDS011;18717;48.034;11.186;2024-02-14T02:22:55;9.68;;;8.70;;
32228;SDS011;18717;48.034;11.186;2024-02-14T02:25:23;9.07;;;8.23;;
32228;SDS011;18717;48.034;11.186;2024-02-14T02:27:52;9.85;;;8.85;;
32228;SDS011;18717;48.034;11.186;2024-02-14T02:30:24;10.27;;;9.48;;
32228;SDS011;18717;48.034;11.186;2024-02-14T02:32:51;9.15;;;8.45;;
32228;SDS011;18717;48.034;11.186;2024-02-14T02:35:19;8.70;;;7.90;;
32228;SDS011;18717;48.034;11.186;2024-02-14T02:37:47;9.10;;;8.50;;
32228;SDS011;18717;48.034;11.186;2024-02-14T02:40:18;8.55;;;7.85;;
32228;SDS011;18717;48.034;11.186;2024-02-14T02:42:47;8.98;;;8.27;;
32228;SDS011;18717;48.034;11.186;2024-02-14T02:45:16;10.18;;;8.23;;
32228;SDS011;18717;48.034;11.186;2024-02-14T02:47:44;9.52;;;8.75;;
32228;SDS011;18717;48.034;11.186;2024-02-14T02:50:13;9.55;;;8.70;;
32228;SDS011;18717;48.034;11.186;2024-02-14T02:52:40;12.00;;;8.15;;
32228;SDS011;18717;48.034;11.186;2024-02-14T02:55:08;11.15;;;9.25;;
32228;SDS011;18717;48.034;11.186;2024-02-14T02:57:38;8.68;;;7.97;;
32228;SDS011;18717;48.034;11.186;2024-02-14T03:00:07;7.95;;;7.35;;
32228;SDS011;18717;48.034;11.186;2024-02-14T03:02:36;9.05;;;8.35;;
32228;SDS011;18717;48.034;11.186;2024-02-14T03:05:07;9.20;;;8.18;;
32228;SDS011;18717;48.034;11.186;2024-02-14T03:07:37;9.50;;;8.60;;
32228;SDS011;18717;48.034;11.186;2024-02-14T03:10:05;8.77;;;7.03;;
32228;SDS011;18717;48.034;11.186;2024-02-14T03:12:34;8.68;;;7.97;;
32228;SDS011;18717;48.034;11.186;2024-02-14T03:15:04;8.52;;;7.85;;
32228;SDS011;18717;48.034;11.186;2024-02-14T03:17:36;8.00;;;7.32;;
32228;SDS011;18717;48.034;11.186;2024-02-14T03:20:05;8.57;;;7.78;;
32228;SDS011;18717;48.034;11.186;2024-02-14T03:22:42;9.23;;;8.30;;
32228;SDS011;18717;48.034;11.186;2024-02-14T03:25:12;8.90;;;7.97;;
32228;SDS011;18717;48.034;11.186;2024-02-14T03:27:40;8.63;;;7.75;;
32228;SDS011;18717;48.034;11.186;2024-02-14T03:30:09;9.90;;;9.10;;
32228;SDS011;18717;48.034;11.186;2024-02-14T03:32:39;9.43;;;8.63;;
32228;SDS011;18717;48.034;11.186;2024-02-14T03:35:07;8.30;;;7.63;;
32228;SDS011;18717;48.034;11.186;2024-02-14T03:37:37;8.13;;;7.60;;
32228;SDS011;18717;48.034;11.186;2024-02-14T03:40:06;9.77;;;8.15;;
32228;SDS011;18717;48.034;11.186;2024-02-14T03:42:34;7.85;;;7.38;;
32228;SDS011;18717;48.034;11.186;2024-02-14T03:45:06;8.27;;;7.72;;
32228;SDS011;18717;48.034;11.186;2024-02-14T03:47:36;7.40;;;6.90;;
32228;SDS011;18717;48.034;11.186;2024-02-14T03:50:07;9.00;;;8.30;;
32228;SDS011;18717;48.034;11.186;2024-02-14T03:52:35;6.95;;;6.53;;
32228;SDS011;18717;48.034;11.186;2024-02-14T03:55:03;7.78;;;7.18;;
32228;SDS011;18717;48.034;11.186;2024-02-14T03:57:32;8.00;;;7.32;;
32228;SDS011;18717;48.034;11.186;2024-02-14T04:00:02;8.43;;;7.70;;
32228;SDS011;18717;48.034;11.186;2024-02-14T04:02:35;7.43;;;6.82;;
32228;SDS011;18717;48.034;11.186;2024-02-14T04:05:06;7.80;;;7.40;;
32228;SDS011;18717;48.034;11.186;2024-02-14T04:07:35;8.43;;;7.55;;
32228;SDS011;18717;48.034;11.186;2024-02-14T04:10:04;7.80;;;7.15;;
32228;SDS011;18717;48.034;11.186;2024-02-14T04:12:32;8.13;;;7.57;;
32228;SDS011;18717;48.034;11.186;2024-02-14T04:15:00;8.50;;;7.80;;
32228;SDS011;18717;48.034;11.186;2024-02-14T04:17:27;8.02;;;7.40;;
32228;SDS011;18717;48.034;11.186;2024-02-14T04:19:57;8.50;;;7.80;;
32228;SDS011;18717;48.034;11.186;2024-02-14T04:22:25;8.27;;;7.32;;
32228;SDS011;18717;48.034;11.186;2024-02-14T04:24:52;8.32;;;7.53;;
32228;SDS011;18717;48.034;11.186;2024-02-14T04:27:20;8.40;;;7.60;;
32228;SDS011;18717;48.034;11.186;2024-02-14T04:29:48;7.32;;;6.55;;
32228;SDS011;18717;48.034;11.186;2024-02-14T04:32:16;7.97;;;7.45;;
32228;SDS011;18717;48.034;11.186;2024-02-14T04:34:45;6.70;;;6.20;;
32228;SDS011;18717;48.034;11.186;2024-02-14T04:37:16;7.60;;;6.47;;
32228;SDS011;18717;48.034;11.186;2024-02-14T04:39:46;8.25;;;7.57;;
32228;SDS011;18717;48.034;11.186;2024-02-14T04:42:14;6.97;;;6.57;;
32228;SDS011;18717;48.034;11.186;2024-02-14T04:44:41;7.97;;;7.30;;
32228;SDS011;18717;48.034;11.186;2024-02-14T04:47:10;7.97;;;7.38;;
32228;SDS011;18717;48.034;11.186;2024-02-14T04:49:37;8.38;;;7.70;;
32228;SDS011;18717;48.034;11.186;2024-02-14T04:52:05;8.20;;;7.55;;
32228;SDS011;18717;48.034;11.186;2024-02-14T04:54:35;8.07;;;7.35;;
32228;SDS011;18717;48.034;11.186;2024-02-14T04:57:02;8.43;;;7.10;;
32228;SDS011;18717;48.034;11.186;2024-02-14T04:59:30;7.97;;;6.80;;
32228;SDS011;18717;48.034;11.186;2024-02-14T05:01:59;7.45;;;6.95;;
32228;SDS011;18717;48.034;11.186;2024-02-14T05:04:26;8.13;;;7.57;;
32228;SDS011;18717;48.034;11.186;2024-02-14T05:06:56;7.65;;;7.15;;
32228;SDS011;18717;48.034;11.186;2024-02-14T05:09:25;7.93;;;7.22;;
32228;SDS011;18717;48.034;11.186;2024-02-14T05:11:54;7.50;;;6.88;;
32228;SDS011;18717;48.034;11.186;2024-02-14T05:14:22;7.35;;;6.78;;
32228;SDS011;18717;48.034;11.186;2024-02-14T05:16:49;7.40;;;7.00;;
32228;SDS011;18717;48.034;11.186;2024-02-14T05:19:17;7.75;;;7.25;;
32228;SDS011;18717;48.034;11.186;2024-02-14T05:21:48;7.70;;;7.10;;
32228;SDS011;18717;48.034;11.186;2024-02-14T05:24:16;7.05;;;6.57;;
32228;SDS011;18717;48.034;11.186;2024-02-14T05:26:44;7.22;;;6.68;;
32228;SDS011;18717;48.034;11.186;2024-02-14T05:29:13;7.00;;;6.40;;
32228;SDS011;18717;48.034;11.186;2024-02-14T05:31:44;6.97;;;6.55;;
32228;SDS011;18717;48.034;11.186;2024-02-14T05:34:12;7.03;;;6.45;;
32228;SDS011;18717;48.034;11.186;2024-02-14T05:36:40;7.65;;;7.05;;
32228;SDS011;18717;48.034;11.186;2024-02-14T05:39:09;7.45;;;6.93;;
32228;SDS011;18717;48.034;11.186;2024-02-14T05:41:37;7.63;;;6.70;;
32228;SDS011;18717;48.034;11.186;2024-02-14T05:44:05;7.43;;;6.70;;
32228;SDS011;18717;48.034;11.186;2024-02-14T05:46:34;7.22;;;6.63;;
32228;SDS011;18717;48.034;11.186;2024-02-14T05:49:02;7.43;;;6.80;;
32228;SDS011;18717;48.034;11.186;2024-02-14T05:51:30;7.05;;;6.53;;
32228;SDS011;18717;48.034;11.186;2024-02-14T05:53:58;7.03;;;6.47;;
32228;SDS011;18717;48.034;11.186;2024-02-14T05:56:26;7.28;;;6.53;;
32228;SDS011;18717;48.034;11.186;2024-02-14T05:58:54;7.20;;;6.65;;
32228;SDS011;18717;48.034;11.186;2024-02-14T06:01:22;7.85;;;7.15;;
32228;SDS011;18717;48.034;11.186;2024-02-14T06:03:51;7.57;;;7.07;;
32228;SDS011;18717;48.034;11.186;2024-02-14T06:06:19;8.35;;;7.65;;
32228;SDS011;18717;48.034;11.186;2024-02-14T06:08:47;7.60;;;7.00;;
32228;SDS011;18717;48.034;11.186;2024-02-14T06:11:15;8.13;;;7.45;;
32228;SDS011;18717;48.034;11.186;2024-02-14T06:13:42;8.40;;;7.47;;
32228;SDS011;18717;48.034;11.186;2024-02-14T06:16:10;8.10;;;7.35;;
32228;SDS011;18717;48.034;11.186;2024-02-14T06:18:38;8.50;;;7.90;;
32228;SDS011;18717;48.034;11.186;2024-02-14T06:21:08;7.70;;;7.20;;
32228;SDS011;18717;48.034;11.186;2024-02-14T06:23:36;11.25;;;9.95;;
32228;SDS011;18717;48.034;11.186;2024-02-14T06:26:05;10.32;;;9.15;;
32228;SDS011;18717;48.034;11.186;2024-02-14T06:28:33;10.88;;;9.27;;
32228;SDS011;18717;48.034;11.186;2024-02-14T06:31:00;9.45;;;8.50;;
32228;SDS011;18717;48.034;11.186;2024-02-14T06:33:28;8.27;;;7.68;;
32228;SDS011;18717;48.034;11.186;2024-02-14T06:35:56;9.18;;;8.32;;
32228;SDS011;18717;48.034;11.186;2024-02-14T06:38:25;7.35;;;6.75;;
32228;SDS011;18717;48.034;11.186;2024-02-14T06:40:53;7.60;;;6.93;;
32228;SDS011;18717;48.034;11.186;2024-02-14T06:43:21;7.80;;;6.95;;
32228;SDS011;18717;48.034;11.186;2024-02-14T06:45:49;6.35;;;6.05;;
32228;SDS011;18717;48.034;11.186;2024-02-14T06:48:16;8.07;;;6.30;;
32228;SDS011;18717;48.034;11.186;2024-02-14T06:50:48;6.72;;;6.43;;
32228;SDS011;18717;48.034;11.186;2024-02-14T06:53:16;7.18;;;6.45;;
32228;SDS011;18717;48.034;11.186;2024-02-14T06:55:45;7.25;;;6.65;;
32228;SDS011;18717;48.034;11.186;2024-02-14T06:58:13;6.55;;;6.15;;
32228;SDS011;18717;48.034;11.186;2024-02-14T07:00:41;7.35;;;6.95;;
32228;SDS011;18717;48.034;11.186;2024-02-14T07:03:09;6.72;;;6.30;;
32228;SDS011;18717;48.034;11.186;2024-02-14T07:05:37;7.00;;;6.50;;
32228;SDS011;18717;48.034;11.186;2024-02-14T07:08:06;6.95;;;6.35;;
32228;SDS011;18717;48.034;11.186;2024-02-14T07:10:33;6.82;;;6.40;;
32228;SDS011;18717;48.034;11.186;2024-02-14T07:13:03;6.90;;;6.50;;
32228;SDS011;18717;48.034;11.186;2024-02-14T07:15:30;6.45;;;6.15;;
32228;SDS011;18717;48.034;11.186;2024-02-14T07:17:58;6.72;;;6.30;;
32228;SDS011;18717;48.034;11.186;2024-02-14T07:20:26;7.28;;;6.68;;
32228;SDS011;18717;48.034;11.186;2024-02-14T07:22:54;7.30;;;6.80;;
32228;SDS011;18717;48.034;11.186;2024-02-14T07:25:23;7.07;;;6.78;;
32228;SDS011;18717;48.034;11.186;2024-02-14T07:27:51;6.68;;;6.32;;
32228;SDS011;18717;48.034;11.186;2024-02-14T07:30:20;7.80;;;7.18;;
32228;SDS011;18717;48.034;11.186;2024-02-14T07:32:48;8.27;;;7.78;;
32228;SDS011;18717;48.034;11.186;2024-02-14T07:35:17;8.20;;;7.60;;
32228;SDS011;18717;48.034;11.186;2024-02-14T07:37:45;8.35;;;7.55;;
32228;SDS011;18717;48.034;11.186;2024-02-14T07:40:14;8.55;;;7.80;;
32228;SDS011;18717;48.034;11.186;2024-02-14T07:42:44;7.53;;;7.13;;
32228;SDS011;18717;48.034;11.186;2024-02-14T07:45:11;8.30;;;7.60;;
32228;SDS011;18717;48.034;11.186;2024-02-14T07:47:41;7.50;;;7.07;;
32228;SDS011;18717;48.034;11.186;2024-02-14T07:50:09;8.65;;;8.05;;
32228;SDS011;18717;48.034;11.186;2024-02-14T07:52:41;7.78;;;7.28;;
32228;SDS011;18717;48.034;11.186;2024-02-14T07:55:09;8.07;;;7.43;;
32228;SDS011;18717;48.034;11.186;2024-02-14T07:57:38;8.20;;;7.70;;
32228;SDS011;18717;48.034;11.186;2024-02-14T08:00:06;8.43;;;7.75;;
32228;SDS011;18717;48.034;11.186;2024-02-14T08:02:36;7.40;;;6.93;;
32228;SDS011;18717;48.034;11.186;2024-02-14T08:05:06;7.68;;;7.18;;
32228;SDS011;18717;48.034;11.186;2024-02-14T08:07:35;8.63;;;7.70;;
32228;SDS011;18717;48.034;11.186;2024-02-14T08:10:03;7.28;;;6.78;;
32228;SDS011;18717;48.034;11.186;2024-02-14T08:12:31;6.80;;;6.50;;
32228;SDS011;18717;48.034;11.186;2024-02-14T08:14:59;7.30;;;6.80;;
32228;SDS011;18717;48.034;11.186;2024-02-14T08:17:30;7.87;;;7.47;;
32228;SDS011;18717;48.034;11.186;2024-02-14T08:19:58;7.78;;;7.20;;
32228;SDS011;18717;48.034;11.186;2024-02-14T08:22:28;7.80;;;7.30;;
32228;SDS011;18717;48.034;11.186;2024-02-14T08:24:55;8.10;;;7.60;;
32228;SDS011;18717;48.034;11.186;2024-02-14T08:27:23;8.02;;;7.57;;
32228;SDS011;18717;48.034;11.186;2024-02-14T08:29:51;8.23;;;7.65;;
32228;SDS011;18717;48.034;11.186;2024-02-14T08:32:19;7.63;;;7.00;;
32228;SDS011;18717;48.034;11.186;2024-02-14T08:34:50;7.63;;;6.90;;
32228;SDS011;18717;48.034;11.186;2024-02-14T08:37:18;8.18;;;7.40;;
32228;SDS011;18717;48.034;11.186;2024-02-14T08:39:47;9.52;;;7.30;;
32228;SDS011;18717;48.034;11.186;2024-02-14T08:42:14;13.15;;;8.18;;
32228;SDS011;18717;48.034;11.186;2024-02-14T08:44:42;8.35;;;7.80;;
32228;SDS011;18717;48.034;11.186;2024-02-14T08:47:10;7.43;;;6.93;;
32228;SDS011;18717;48.034;11.186;2024-02-14T08:49:40;7.90;;;7.47;;
32228;SDS011;18717;48.034;11.186;2024-02-14T08:52:07;8.30;;;7.70;;
32228;SDS011;18717;48.034;11.186;2024-02-14T08:54:36;8.00;;;7.60;;
32228;SDS011;18717;48.034;11.186;2024-02-14T08:57:05;8.10;;;7.60;;
32228;SDS011;18717;48.034;11.186;2024-02-14T08:59:33;8.20;;;7.57;;
32228;SDS011;18717;48.034;11.186;2024-02-14T09:02:01;8.13;;;7.72;;
32228;SDS011;18717;48.034;11.186;2024-02-14T09:04:29;8.38;;;7.95;;
32228;SDS011;18717;48.034;11.186;2024-02-14T09:06:56;8.05;;;7.65;;
32228;SDS011;18717;48.034;11.186;2024-02-14T09:09:24;9.20;;;8.48;;
32228;SDS011;18717;48.034;11.186;2024-02-14T09:11:52;8.63;;;8.18;;
32228;SDS011;18717;48.034;11.186;2024-02-14T09:14:22;9.77;;;8.82;;
32228;SDS011;18717;48.034;11.186;2024-02-14T09:16:52;8.70;;;8.13;;
32228;SDS011;18717;48.034;11.186;2024-02-14T09:19:20;9.00;;;8.50;;
32228;SDS011;18717;48.034;11.186;2024-02-14T09:21:48;8.93;;;8.38;;
32228;SDS011;18717;48.034;11.186;2024-02-14T09:24:16;8.38;;;7.88;;
32228;SDS011;18717;48.034;11.186;2024-02-14T09:26:44;8.10;;;7.80;;
32228;SDS011;18717;48.034;11.186;2024-02-14T09:29:11;8.70;;;8.20;;
32228;SDS011;18717;48.034;11.186;2024-02-14T09:31:42;9.13;;;8.73;;
32228;SDS011;18717;48.034;11.186;2024-02-14T09:34:13;8.80;;;8.40;;
32228;SDS011;18717;48.034;11.186;2024-02-14T09:36:44;9.20;;;8.40;;
32228;SDS011;18717;48.034;11.186;2024-02-14T09:39:12;9.57;;;8.88;;
32228;SDS011;18717;48.034;11.186;2024-02-14T09:41:44;6.15;;;5.85;;
32228;SDS011;18717;48.034;11.186;2024-02-14T09:44:13;8.75;;;8.15;;
32228;SDS011;18717;48.034;11.186;2024-02-14T09:46:42;8.48;;;8.07;;
32228;SDS011;18717;48.034;11.186;2024-02-14T09:49:10;8.68;;;8.18;;
32228;SDS011;18717;48.034;11.186;2024-02-14T09:51:39;8.63;;;8.05;;
32228;SDS011;18717;48.034;11.186;2024-02-14T09:54:08;8.98;;;8.27;;
32228;SDS011;18717;48.034;11.186;2024-02-14T09:56:38;10.18;;;9.40;;
32228;SDS011;18717;48.034;11.186;2024-02-14T09:59:05;9.10;;;8.70;;
32228;SDS011;18717;48.034;11.186;2024-02-14T10:01:36;8.93;;;8.48;;
32228;SDS011;18717;48.034;11.186;2024-02-14T10:04:05;9.77;;;9.13;;
32228;SDS011;18717;48.034;11.186;2024-02-14T10:06:33;8.68;;;8.27;;
32228;SDS011;18717;48.034;11.186;2024-02-14T10:09:01;11.65;;;10.95;;
32228;SDS011;18717;48.034;11.186;2024-02-14T10:11:30;9.00;;;8.60;;
32228;SDS011;18717;48.034;11.186;2024-02-14T10:13:59;9.60;;;9.10;;
32228;SDS011;18717;48.034;11.186;2024-02-14T10:16:30;8.82;;;8.43;;
32228;SDS011;18717;48.034;11.186;2024-02-14T10:18:58;10.15;;;9.38;;
32228;SDS011;18717;48.034;11.186;2024-02-14T10:21:28;9.27;;;8.77;;
32228;SDS011;18717;48.034;11.186;2024-02-14T10:23:59;9.95;;;9.45;;
32228;SDS011;18717;48.034;11.186;2024-02-14T10:26:27;9.20;;;8.80;;
32228;SDS011;18717;48.034;11.186;2024-02-14T10:28:56;10.02;;;9.48;;
32228;SDS011;18717;48.034;11.186;2024-02-14T10:31:24;9.40;;;9.00;;
32228;SDS011;18717;48.034;11.186;2024-02-14T10:33:52;9.55;;;9.05;;
32228;SDS011;18717;48.034;11.186;2024-02-14T10:36:22;10.23;;;9.73;;
32228;SDS011;18717;48.034;11.186;2024-02-14T10:38:51;10.30;;;9.50;;
32228;SDS011;18717;48.034;11.186;2024-02-14T10:41:19;10.50;;;9.93;;
32228;SDS011;18717;48.034;11.186;2024-02-14T10:43:46;9.93;;;9.43;;
32228;SDS011;18717;48.034;11.186;2024-02-14T10:46:15;10.60;;;9.90;;
32228;SDS011;18717;48.034;11.186;2024-02-14T10:48:48;9.70;;;9.20;;
32228;SDS011;18717;48.034;11.186;2024-02-14T10:51:17;9.70;;;9.30;;
32228;SDS011;18717;48.034;11.186;2024-02-14T10:53:47;10.10;;;9.50;;
32228;SDS011;18717;48.034;11.186;2024-02-14T10:56:18;9.98;;;9.23;;
32228;SDS011;18717;48.034;11.186;2024-02-14T10:58:46;10.07;;;9.57;;
32228;SDS011;18717;48.034;11.186;2024-02-14T11:01:15;9.43;;;8.98;;
32228;SDS011;18717;48.034;11.186;2024-02-14T11:03:43;9.68;;;9.15;;
32228;SDS011;18717;48.034;11.186;2024-02-14T11:06:15;11.00;;;10.40;;
32228;SDS011;18717;48.034;11.186;2024-02-14T11:08:54;9.30;;;9.00;;
32228;SDS011;18717;48.034;11.186;2024-02-14T11:11:27;10.05;;;9.23;;
32228;SDS011;18717;48.034;11.186;2024-02-14T11:13:56;9.60;;;9.13;;
32228;SDS011;18717;48.034;11.186;2024-02-14T11:16:25;10.55;;;9.98;;
32228;SDS011;18717;48.034;11.186;2024-02-14T11:19:05;9.50;;;9.10;;
32228;SDS011;18717;48.034;11.186;2024-02-14T11:21:35;10.65;;;10.15;;
32228;SDS011;18717;48.034;11.186;2024-02-14T11:24:06;9.60;;;9.20;;
32228;SDS011;18717;48.034;11.186;2024-02-14T11:26:47;10.60;;;10.20;;
32228;SDS011;18717;48.034;11.186;2024-02-14T11:29:16;10.32;;;9.82;;
32228;SDS011;18717;48.034;11.186;2024-02-14T11:31:57;10.77;;;10.07;;
32228;SDS011;18717;48.034;11.186;2024-02-14T11:34:26;9.93;;;9.52;;
32228;SDS011;18717;48.034;11.186;2024-02-14T11:36:54;10.48;;;10.00;;
32228;SDS011;18717;48.034;11.186;2024-02-14T11:39:22;9.68;;;9.27;;
32228;SDS011;18717;48.034;11.186;2024-02-14T11:41:51;10.05;;;9.63;;
32228;SDS011;18717;48.034;11.186;2024-02-14T11:44:19;10.00;;;9.48;;
32228;SDS011;18717;48.034;11.186;2024-02-14T11:46:48;10.70;;;10.10;;
32228;SDS011;18717;48.034;11.186;2024-02-14T11:49:16;10.18;;;9.68;;
32228;SDS011;18717;48.034;11.186;2024-02-14T11:51:45;10.48;;;9.85;;
32228;SDS011;18717;48.034;11.186;2024-02-14T11:54:14;10.40;;;10.00;;
32228;SDS011;18717;48.034;11.186;2024-02-14T11:56:42;10.18;;;9.70;;
32228;SDS011;18717;48.034;11.186;2024-02-14T11:59:11;11.25;;;10.70;;
32228;SDS011;18717;48.034;11.186;2024-02-14T12:01:41;10.43;;;9.93;;
32228;SDS011;18717;48.034;11.186;2024-02-14T12:04:09;11.68;;;10.25;;
32228;SDS011;18717;48.034;11.186;2024-02-14T12:06:38;10.05;;;9.55;;
32228;SDS011;18717;48.034;11.186;2024-02-14T12:09:08;10.65;;;10.15;;
32228;SDS011;18717;48.034;11.186;2024-02-14T12:11:37;10.13;;;9.63;;
32228;SDS011;18717;48.034;11.186;2024-02-14T12:14:07;10.80;;;10.30;;
32228;SDS011;18717;48.034;11.186;2024-02-14T12:16:37;11.95;;;11.25;;
32228;SDS011;18717;48.034;11.186;2024-02-14T12:19:07;11.32;;;10.73;;
32228;SDS011;18717;48.034;11.186;2024-02-14T12:21:37;10.45;;;9.90;;
32228;SDS011;18717;48.034;11.186;2024-02-14T12:24:06;10.18;;;9.68;;
32228;SDS011;18717;48.034;11.186;2024-02-14T12:26:34;10.95;;;10.35;;
32228;SDS011;18717;48.034;11.186;2024-02-14T12:29:03;10.65;;;10.15;;
32228;SDS011;18717;48.034;11.186;2024-02-14T12:31:31;9.95;;;9.45;;
32228;SDS011;18717;48.034;11.186;2024-02-14T12:34:01;10.35;;;9.85;;
32228;SDS011;18717;48.034;11.186;2024-02-14T12:36:31;10.43;;;9.82;;
32228;SDS011;18717;48.034;11.186;2024-02-14T12:39:00;10.63;;;10.23;;
32228;SDS011;18717;48.034;11.186;2024-02-14T12:41:30;9.63;;;9.23;;
32228;SDS011;18717;48.034;11.186;2024-02-14T12:43:58;10.65;;;10.18;;
32228;SDS011;18717;48.034;11.186;2024-02-14T12:46:26;10.82;;;10.32;;
32228;SDS011;18717;48.034;11.186;2024-02-14T12:48:54;10.18;;;9.77;;
32228;SDS011;18717;48.034;11.186;2024-02-14T12:51:24;9.85;;;9.30;;
32228;SDS011;18717;48.034;11.186;2024-02-14T12:53:55;10.43;;;10.02;;
32228;SDS011;18717;48.034;11.186;2024-02-14T12:56:23;10.55;;;10.05;;
32228;SDS011;18717;48.034;11.186;2024-02-14T12:58:52;10.32;;;9.80;;
32228;SDS011;18717;48.034;11.186;2024-02-14T13:01:20;10.60;;;9.75;;
32228;SDS011;18717;48.034;11.186;2024-02-14T13:03:47;9.90;;;9.43;;
32228;SDS011;18717;48.034;11.186;2024-02-14T13:06:15;9.95;;;9.50;;
32228;SDS011;18717;48.034;11.186;2024-02-14T13:08:45;10.65;;;10.15;;
32228;SDS011;18717;48.034;11.186;2024-02-14T13:11:13;10.27;;;9.82;;
32228;SDS011;18717;48.034;11.186;2024-02-14T13:16:12;10.05;;;9.65;;
32228;SDS011;18717;48.034;11.186;2024-02-14T13:18:40;10.10;;;9.70;;
32228;SDS011;18717;48.034;11.186;2024-02-14T13:21:08;9.68;;;9.27;;
32228;SDS011;18717;48.034;11.186;2024-02-14T13:23:36;10.63;;;10.20;;
32228;SDS011;18717;48.034;11.186;2024-02-14T13:26:05;10.45;;;10.05;;
32228;SDS011;18717;48.034;11.186;2024-02-14T13:28:34;10.55;;;10.00;;
32228;SDS011;18717;48.034;11.186;2024-02-14T13:31:02;10.73;;;10.23;;
32228;SDS011;18717;48.034;11.186;2024-02-14T13:33:30;9.98;;;9.57;;
32228;SDS011;18717;48.034;11.186;2024-02-14T13:35:58;9.95;;;9.55;;
32228;SDS011;18717;48.034;11.186;2024-02-14T13:38:26;9.48;;;9.07;;
32228;SDS011;18717;48.034;11.186;2024-02-14T13:40:53;9.68;;;9.27;;
32228;SDS011;18717;48.034;11.186;2024-02-14T13:43:22;10.88;;;10.15;;
32228;SDS011;18717;48.034;11.186;2024-02-14T13:45:51;10.45;;;9.95;;
32228;SDS011;18717;48.034;11.186;2024-02-14T13:48:19;10.70;;;9.82;;
32228;SDS011;18717;48.034;11.186;2024-02-14T13:50:47;10.02;;;9.43;;
32228;SDS011;18717;48.034;11.186;2024-02-14T13:53:15;10.40;;;10.00;;
32228;SDS011;18717;48.034;11.186;2024-02-14T13:55:44;10.30;;;9.90;;
32228;SDS011;18717;48.034;11.186;2024-02-14T13:58:11;10.48;;;9.98;;
32228;SDS011;18717;48.034;11.186;2024-02-14T14:00:44;9.85;;;9.45;;
32228;SDS011;18717;48.034;11.186;2024-02-14T14:03:12;10.20;;;9.80;;
32228;SDS011;18717;48.034;11.186;2024-02-14T14:05:40;10.55;;;9.90;;
32228;SDS011;18717;48.034;11.186;2024-02-14T14:08:08;10.98;;;10.20;;
32228;SDS011;18717;48.034;11.186;2024-02-14T14:10:36;9.82;;;9.35;;
32228;SDS011;18717;48.034;11.186;2024-02-14T14:13:04;9.82;;;9.43;;
32228;SDS011;18717;48.034;11.186;2024-02-14T14:15:31;10.57;;;10.18;;
32228;SDS011;18717;48.034;11.186;2024-02-14T14:18:01;10.70;;;10.18;;
32228;SDS011;18717;48.034;11.186;2024-02-14T14:20:29;9.95;;;9.55;;
32228;SDS011;18717;48.034;11.186;2024-02-14T14:22:57;10.65;;;10.15;;
32228;SDS011;18717;48.034;11.186;2024-02-14T14:25:25;9.75;;;9.35;;
32228;SDS011;18717;48.034;11.186;2024-02-14T14:27:53;9.95;;;9.55;;
32228;SDS011;18717;48.034;11.186;2024-02-14T14:30:21;10.07;;;9.68;;
32228;SDS011;18717;48.034;11.186;2024-02-14T14:32:48;9.77;;;9.38;;
32228;SDS011;18717;48.034;11.186;2024-02-14T14:35:17;10.18;;;9.77;;
32228;SDS011;18717;48.034;11.186;2024-02-14T14:37:46;9.98;;;9.57;;
32228;SDS011;18717;48.034;11.186;2024-02-14T14:40:14;10.02;;;9.63;;
32228;SDS011;18717;48.034;11.186;2024-02-14T14:42:41;10.15;;;9.68;;